Rockport, California
Current Conditions -  °F | °C
As of 6:18 AM on Tuesday 21 Oct 2014 (Local Time) from KUKI Reporting Station
Overcast Overcast  
Wind Chill: 48°   Ceiling: 300
Heat Index: 48°   Visibility: 10mi
Dew Point: 46°   Wind: 0mph
Humidity: 93%   Direction: NA
Pressure: 30.12"   Gusts: NA
Location:  39.6631°N, 123.734°W
Report Text: KUKI 211318Z AUTO 00000KT 10SM OVC003 09/08 A3012 RMK AO2 T00890078
Loading
Personal Weather Stations






























Interactive Weather Map
Tropical Storm Tracking
New forecast layout! Learn more

10-Day Weather Forecast

Advertisements
Track Severe Weather on mobile